createdAt,value
2023-06-21T00:00:57.601Z,41.82
2023-06-21T00:01:57.620Z,41.74
2023-06-21T00:02:57.671Z,41.59
2023-06-21T00:03:57.714Z,41.61
2023-06-21T00:04:57.597Z,41.57
2023-06-21T00:05:57.614Z,41.51
2023-06-21T00:06:57.635Z,41.66
2023-06-21T00:07:57.655Z,41.68
2023-06-21T00:08:57.611Z,41.73
2023-06-21T00:09:57.669Z,41.73
2023-06-21T00:10:57.676Z,41.68
2023-06-21T00:11:57.677Z,41.76
2023-06-21T00:12:57.697Z,41.99
2023-06-21T00:13:57.713Z,41.92
2023-06-21T00:14:57.704Z,42.04
2023-06-21T00:15:57.726Z,41.95
2023-06-21T00:16:57.730Z,41.88
2023-06-21T00:17:57.783Z,42.12
2023-06-21T00:18:57.795Z,42.40
2023-06-21T00:19:57.818Z,42.78
2023-06-21T00:20:57.849Z,42.80
2023-06-21T00:21:57.855Z,42.77
2023-06-21T00:22:57.941Z,42.71
2023-06-21T00:23:57.965Z,42.71
2023-06-21T00:24:57.877Z,42.80
2023-06-21T00:25:57.893Z,43.05
2023-06-21T00:26:57.921Z,42.82
2023-06-21T00:27:57.921Z,42.72
2023-06-21T00:28:57.975Z,42.58
2023-06-21T00:29:58.022Z,42.86
2023-06-21T00:30:58.086Z,43.11
2023-06-21T00:31:58.475Z,43.12
2023-06-21T00:32:58.097Z,43.12
2023-06-21T00:33:58.073Z,43.24
2023-06-21T00:34:58.117Z,43.13
2023-06-21T00:35:58.140Z,42.91
2023-06-21T00:36:58.207Z,42.83
2023-06-21T00:37:58.197Z,42.74
2023-06-21T00:38:58.253Z,42.71
2023-06-21T00:39:58.302Z,42.61
2023-06-21T00:40:58.259Z,42.55
2023-06-21T00:41:58.296Z,42.61
2023-06-21T00:42:58.312Z,42.73
2023-06-21T00:43:58.360Z,42.75
2023-06-21T00:44:58.344Z,42.81
2023-06-21T00:45:58.421Z,42.79
2023-06-21T00:46:58.450Z,42.82
2023-06-21T00:47:58.612Z,42.71
2023-06-21T00:48:58.469Z,42.71
2023-06-21T00:49:58.502Z,42.60
2023-06-21T00:50:58.580Z,42.76
2023-06-21T00:51:58.638Z,42.80
2023-06-21T00:52:58.646Z,42.85
2023-06-21T00:53:58.682Z,42.89
2023-06-21T00:54:58.692Z,42.85
2023-06-21T00:55:58.749Z,43.11
2023-06-21T00:56:58.768Z,43.19
2023-06-21T00:57:58.822Z,43.23
2023-06-21T00:58:58.824Z,43.20
2023-06-21T00:59:58.873Z,43.21
2023-06-21T01:00:58.901Z,43.39
2023-06-21T01:01:59.004Z,43.29
2023-06-21T01:02:59.060Z,43.25
2023-06-21T01:03:59.062Z,43.17
2023-06-21T01:04:59.116Z,43.11
2023-06-21T01:05:59.181Z,43.35
2023-06-21T01:06:59.242Z,43.96
2023-06-21T01:07:59.330Z,44.65
2023-06-21T01:08:59.343Z,44.88
2023-06-21T01:09:59.438Z,45.70
2023-06-21T01:10:59.483Z,46.34
2023-06-21T01:11:59.528Z,46.21
2023-06-21T01:12:59.574Z,45.92
2023-06-21T01:13:59.652Z,45.80
2023-06-21T01:14:59.680Z,45.71
2023-06-21T01:15:59.703Z,45.19
2023-06-21T01:17:00.492Z,44.48
2023-06-21T01:17:59.859Z,45.22
2023-06-21T01:18:59.881Z,45.51
2023-06-21T01:19:59.947Z,46.04
2023-06-21T01:20:59.990Z,46.23
2023-06-21T01:22:00.048Z,46.15
2023-06-21T01:23:00.479Z,46.06
2023-06-21T01:24:00.108Z,45.84
2023-06-21T01:25:00.123Z,45.92
2023-06-21T01:26:00.122Z,46.24
2023-06-21T01:27:00.110Z,46.37
2023-06-21T01:28:00.092Z,46.36
2023-06-21T01:29:00.161Z,46.63
2023-06-21T01:30:00.266Z,47.00
2023-06-21T01:31:00.276Z,46.91
2023-06-21T01:32:00.359Z,47.16
2023-06-21T01:33:00.546Z,47.18
2023-06-21T01:34:00.312Z,47.10
2023-06-21T01:35:00.333Z,47.05
2023-06-21T01:36:00.369Z,46.91
2023-06-21T01:37:00.381Z,46.88
2023-06-21T01:38:00.387Z,47.07
2023-06-21T01:39:00.382Z,47.35
2023-06-21T01:40:00.398Z,47.44
2023-06-21T01:41:00.477Z,47.81
2023-06-21T01:42:00.494Z,47.74
2023-06-21T01:43:00.498Z,47.97
2023-06-21T01:44:00.523Z,48.05
2023-06-21T01:45:00.538Z,48.22
2023-06-21T01:46:00.662Z,48.05
2023-06-21T01:47:00.619Z,48.10
2023-06-21T01:48:00.693Z,48.18
2023-06-21T01:49:00.626Z,47.94
2023-06-21T01:50:00.694Z,47.84
2023-06-21T01:51:00.733Z,47.81
2023-06-21T01:52:00.737Z,48.05
2023-06-21T01:53:00.740Z,48.38
2023-06-21T01:54:00.767Z,48.96
2023-06-21T01:55:00.803Z,49.11
2023-06-21T01:56:00.868Z,49.31
2023-06-21T01:57:00.941Z,49.46
2023-06-21T01:58:00.921Z,49.70
2023-06-21T01:59:00.940Z,49.75
2023-06-21T02:00:01.017Z,49.98
2023-06-21T02:01:01.069Z,49.64
2023-06-21T02:02:02.140Z,49.36
2023-06-21T02:03:01.162Z,49.28
2023-06-21T02:04:01.224Z,49.16
2023-06-21T02:05:01.269Z,49.03
2023-06-21T02:06:01.238Z,48.80
2023-06-21T02:07:01.271Z,48.70
2023-06-21T02:08:01.332Z,48.53
2023-06-21T02:09:01.388Z,48.47
2023-06-21T02:10:01.410Z,48.36
2023-06-21T02:11:01.454Z,47.69
2023-06-21T02:12:01.626Z,47.08
2023-06-21T02:13:01.534Z,46.94
2023-06-21T02:14:01.556Z,47.01
2023-06-21T02:15:01.610Z,46.65
2023-06-21T02:16:01.650Z,45.93
2023-06-21T02:17:01.725Z,45.93
2023-06-21T02:18:01.791Z,45.77
2023-06-21T02:19:01.794Z,45.71
2023-06-21T02:20:01.875Z,45.64
2023-06-21T02:21:01.875Z,45.48
2023-06-21T02:22:01.988Z,45.44
2023-06-21T02:23:02.010Z,45.41
2023-06-21T02:24:02.137Z,45.39
2023-06-21T02:25:02.087Z,45.44
2023-06-21T02:26:02.164Z,45.38
2023-06-21T02:27:02.255Z,45.37
2023-06-21T02:28:02.255Z,45.38
2023-06-21T02:29:02.336Z,45.38
2023-06-21T02:30:02.395Z,45.35
2023-06-21T02:31:02.461Z,45.31
2023-06-21T02:32:02.498Z,45.31
2023-06-21T02:33:02.597Z,45.42
2023-06-21T02:34:02.673Z,45.41
2023-06-21T02:35:02.682Z,45.44
2023-06-21T02:36:02.712Z,45.45
2023-06-21T02:37:02.782Z,45.55
2023-06-21T02:38:02.816Z,45.56
2023-06-21T02:39:02.867Z,45.63
2023-06-21T02:40:02.933Z,45.72
2023-06-21T02:41:02.972Z,45.77
2023-06-21T02:42:02.980Z,45.90
2023-06-21T02:43:03.020Z,45.94
2023-06-21T02:44:03.032Z,46.16
2023-06-21T02:45:03.031Z,46.37
2023-06-21T02:46:03.032Z,46.43
2023-06-21T02:47:03.103Z,46.50
2023-06-21T02:48:03.085Z,46.50
2023-06-21T02:49:03.106Z,46.85
2023-06-21T02:50:03.131Z,46.82
2023-06-21T02:51:03.119Z,46.67
2023-06-21T02:52:03.166Z,46.42
2023-06-21T02:53:03.136Z,46.31
2023-06-21T02:54:03.165Z,46.33
2023-06-21T02:55:03.134Z,46.28
2023-06-21T02:56:03.150Z,46.23
2023-06-21T02:57:03.152Z,46.20
2023-06-21T02:58:03.155Z,46.21
2023-06-21T02:59:03.133Z,46.26
2023-06-21T03:00:03.163Z,46.51
2023-06-21T03:01:03.200Z,46.92
2023-06-21T03:02:04.009Z,47.07
2023-06-21T03:03:03.250Z,47.59
2023-06-21T03:04:03.216Z,47.86
2023-06-21T03:05:03.179Z,48.29
2023-06-21T03:06:03.157Z,48.46
2023-06-21T03:07:03.143Z,48.65
2023-06-21T03:08:03.173Z,48.89
2023-06-21T03:09:03.222Z,49.06
2023-06-21T03:10:03.190Z,49.01
2023-06-21T03:11:03.184Z,48.98
2023-06-21T03:12:04.028Z,49.01
2023-06-21T03:13:03.242Z,49.34
2023-06-21T03:14:03.245Z,49.29
2023-06-21T03:15:03.260Z,49.21
2023-06-21T03:16:03.230Z,49.20
2023-06-21T03:17:03.225Z,49.13
2023-06-21T03:18:03.281Z,49.23
2023-06-21T03:19:03.275Z,48.85
2023-06-21T03:20:03.250Z,48.43
2023-06-21T03:21:03.294Z,47.97
2023-06-21T03:22:03.291Z,47.86
2023-06-21T03:23:03.557Z,47.79
2023-06-21T03:24:03.320Z,47.79
2023-06-21T03:25:03.295Z,47.76
2023-06-21T03:26:03.297Z,47.99
2023-06-21T03:27:03.305Z,47.84
2023-06-21T03:28:03.542Z,47.54
2023-06-21T03:29:03.311Z,47.45
2023-06-21T03:30:03.275Z,47.65
2023-06-21T03:31:03.319Z,47.88
2023-06-21T03:32:03.306Z,48.40
2023-06-21T03:33:03.363Z,48.51
2023-06-21T03:34:03.357Z,49.17
2023-06-21T03:35:03.392Z,49.19
2023-06-21T03:36:03.347Z,49.35
2023-06-21T03:37:03.364Z,49.49
2023-06-21T03:38:03.339Z,49.54
2023-06-21T03:39:03.413Z,49.71
2023-06-21T03:40:03.387Z,49.67
2023-06-21T03:41:03.456Z,49.69
2023-06-21T03:42:03.454Z,49.82
2023-06-21T03:43:03.408Z,49.91
2023-06-21T03:44:03.450Z,50.41
2023-06-21T03:45:03.456Z,50.75
2023-06-21T03:46:03.538Z,50.72
2023-06-21T03:47:03.541Z,50.80
2023-06-21T03:48:03.647Z,51.05
2023-06-21T03:49:03.618Z,51.38
2023-06-21T03:50:03.650Z,51.77
2023-06-21T03:51:03.681Z,52.03
2023-06-21T03:52:03.713Z,52.27
2023-06-21T03:53:03.740Z,52.36
2023-06-21T03:54:03.793Z,52.18
2023-06-21T03:55:03.839Z,51.83
2023-06-21T03:56:03.884Z,51.62
2023-06-21T03:57:03.968Z,51.53
2023-06-21T03:58:03.966Z,51.76
2023-06-21T03:59:03.995Z,51.54
2023-06-21T04:00:04.012Z,51.28
2023-06-21T04:01:04.063Z,51.27
2023-06-21T04:02:04.129Z,51.41
2023-06-21T04:03:04.231Z,51.30
2023-06-21T04:04:04.326Z,51.30
2023-06-21T04:05:04.241Z,51.14
2023-06-21T04:06:04.233Z,51.10
2023-06-21T04:07:04.291Z,51.21
2023-06-21T04:08:04.352Z,51.18
2023-06-21T04:09:04.389Z,51.19
2023-06-21T04:10:04.431Z,51.17
2023-06-21T04:11:04.462Z,51.07
2023-06-21T04:12:04.535Z,51.09
2023-06-21T04:13:04.616Z,50.97
2023-06-21T04:14:04.620Z,50.94
2023-06-21T04:15:04.630Z,50.96
2023-06-21T04:16:04.711Z,50.99
2023-06-21T04:17:04.747Z,51.02
2023-06-21T04:18:04.838Z,50.95
2023-06-21T04:19:04.824Z,50.88
2023-06-21T04:20:04.888Z,50.89
2023-06-21T04:21:04.940Z,50.88
2023-06-21T04:22:04.981Z,50.81
2023-06-21T04:23:05.058Z,50.84
2023-06-21T04:24:05.063Z,50.74
2023-06-21T04:25:06.320Z,50.77
2023-06-21T04:26:05.133Z,50.74
2023-06-21T04:27:05.184Z,50.88
2023-06-21T04:28:05.226Z,50.86
2023-06-21T04:29:05.272Z,50.89
2023-06-21T04:30:05.334Z,50.93
2023-06-21T04:31:05.453Z,50.80
2023-06-21T04:32:05.421Z,50.70
2023-06-21T04:33:05.510Z,50.79
2023-06-21T04:34:05.550Z,50.68
2023-06-21T04:35:05.594Z,50.62
2023-06-21T04:36:05.676Z,50.65
2023-06-21T04:37:05.713Z,50.66
2023-06-21T04:38:05.773Z,50.68
2023-06-21T04:39:05.818Z,50.64
2023-06-21T04:40:16.588Z,50.41
2023-06-21T04:41:06.873Z,50.52
2023-06-21T04:42:05.855Z,50.47
2023-06-21T04:43:05.869Z,50.47
2023-06-21T04:44:05.842Z,50.40
2023-06-21T04:45:05.828Z,50.34
2023-06-21T04:46:05.848Z,50.31
2023-06-21T04:47:05.852Z,50.20
2023-06-21T04:48:05.854Z,49.61
2023-06-21T04:49:05.794Z,48.95
2023-06-21T04:50:20.350Z,48.70
2023-06-21T04:51:06.829Z,48.53
2023-06-21T04:52:05.818Z,48.27
2023-06-21T04:53:05.780Z,48.16
2023-06-21T04:54:05.817Z,48.14
2023-06-21T04:55:05.743Z,47.96
2023-06-21T04:56:05.758Z,47.77
2023-06-21T04:57:05.764Z,47.70
2023-06-21T04:58:05.756Z,47.65
2023-06-21T04:59:05.766Z,47.48
2023-06-21T05:00:05.764Z,47.44
2023-06-21T05:01:05.796Z,47.40
2023-06-21T05:02:05.881Z,47.52
2023-06-21T05:03:06.010Z,47.53
2023-06-21T05:04:05.938Z,47.50
2023-06-21T05:05:06.020Z,47.48
2023-06-21T05:06:05.993Z,47.46
2023-06-21T05:07:06.096Z,47.42
2023-06-21T05:08:06.559Z,47.51
2023-06-21T05:09:06.189Z,47.65
2023-06-21T05:10:06.247Z,47.65
2023-06-21T05:11:06.317Z,47.65
2023-06-21T05:12:06.362Z,47.50
2023-06-21T05:13:06.639Z,47.51
2023-06-21T05:14:06.397Z,47.39
2023-06-21T05:15:06.894Z,47.39
2023-06-21T05:16:06.545Z,47.41
2023-06-21T05:17:06.586Z,47.52
2023-06-21T05:18:07.121Z,47.55
2023-06-21T05:19:06.723Z,47.55
2023-06-21T05:20:06.823Z,47.53
2023-06-21T05:21:06.840Z,47.46
2023-06-21T05:22:06.834Z,47.97
2023-06-21T05:23:07.107Z,47.51
2023-06-21T05:24:06.924Z,47.24
2023-06-21T05:25:06.860Z,46.89
2023-06-21T05:26:06.875Z,46.74
2023-06-21T05:27:06.941Z,46.50
2023-06-21T05:28:07.168Z,46.20
2023-06-21T05:29:07.061Z,45.87
2023-06-21T05:30:07.071Z,45.64
2023-06-21T05:31:07.133Z,45.42
2023-06-21T05:32:07.151Z,45.17
2023-06-21T05:33:07.669Z,45.03
2023-06-21T05:34:07.242Z,44.84
2023-06-21T05:35:07.308Z,44.60
2023-06-21T05:36:07.357Z,44.59
2023-06-21T05:37:07.372Z,44.41
2023-06-21T05:38:07.625Z,44.27
2023-06-21T05:39:07.433Z,44.16
2023-06-21T05:40:07.479Z,44.07
2023-06-21T05:41:07.469Z,43.99
2023-06-21T05:42:07.498Z,43.96
2023-06-21T05:43:07.653Z,43.84
2023-06-21T05:44:07.455Z,43.70
2023-06-21T05:45:07.562Z,43.91
2023-06-21T05:46:07.582Z,43.96
2023-06-21T05:47:07.569Z,44.04
2023-06-21T05:48:07.667Z,43.82
2023-06-21T05:49:07.660Z,43.59
2023-06-21T05:50:07.750Z,43.55
2023-06-21T05:51:07.791Z,43.57
2023-06-21T05:52:07.859Z,44.36
2023-06-21T05:53:08.143Z,44.64
2023-06-21T05:54:07.939Z,44.74
2023-06-21T05:55:08.002Z,43.88
2023-06-21T05:56:08.017Z,43.91
2023-06-21T05:57:08.104Z,42.93
2023-06-21T05:58:08.124Z,42.47
2023-06-21T05:59:08.112Z,42.35
2023-06-21T06:00:08.131Z,42.61
2023-06-21T06:01:23.640Z,42.62
2023-06-21T06:02:09.145Z,42.65
2023-06-21T06:03:08.132Z,42.62
2023-06-21T06:04:08.151Z,42.48
2023-06-21T06:05:08.087Z,42.52
2023-06-21T06:06:08.078Z,42.35
2023-06-21T06:07:08.099Z,42.26
2023-06-21T06:08:08.090Z,42.24
2023-06-21T06:09:08.054Z,42.15
2023-06-21T06:10:08.074Z,42.08
2023-06-21T06:11:08.026Z,41.78
2023-06-21T06:12:10.033Z,41.98
2023-06-21T06:13:08.049Z,42.28
2023-06-21T06:14:08.016Z,42.42
2023-06-21T06:15:08.057Z,42.43
2023-06-21T06:16:08.130Z,43.00
2023-06-21T06:17:08.169Z,43.30
2023-06-21T06:18:08.279Z,43.24
2023-06-21T06:19:08.261Z,43.33
2023-06-21T06:20:08.296Z,43.44
2023-06-21T06:21:08.416Z,43.30
2023-06-21T06:22:08.420Z,43.18
2023-06-21T06:23:08.474Z,43.03
2023-06-21T06:24:08.494Z,42.80
2023-06-21T06:25:08.560Z,42.73
2023-06-21T06:26:10.255Z,42.63
2023-06-21T06:27:08.626Z,42.50
2023-06-21T06:28:08.695Z,42.27
2023-06-21T06:29:08.689Z,42.22
2023-06-21T06:30:08.789Z,42.45
2023-06-21T06:31:08.846Z,42.59
2023-06-21T06:32:08.856Z,42.61
2023-06-21T06:33:08.950Z,42.61
2023-06-21T06:34:08.962Z,42.46
2023-06-21T06:35:09.002Z,42.34
2023-06-21T06:36:08.973Z,42.26
2023-06-21T06:37:14.687Z,42.21
2023-06-21T06:38:10.049Z,42.15
2023-06-21T06:39:09.011Z,42.42
2023-06-21T06:40:09.032Z,42.37
2023-06-21T06:41:08.994Z,42.36
2023-06-21T06:42:09.031Z,42.37
2023-06-21T06:43:09.141Z,42.38
2023-06-21T06:44:09.011Z,42.29
2023-06-21T06:45:08.978Z,42.33
2023-06-21T06:46:09.012Z,42.24
2023-06-21T06:47:08.979Z,42.14
2023-06-21T06:48:08.962Z,41.63
2023-06-21T06:49:08.962Z,41.63
2023-06-21T06:50:08.993Z,41.92
2023-06-21T06:51:09.026Z,42.00
2023-06-21T06:52:09.004Z,41.92
2023-06-21T06:53:09.062Z,41.34
2023-06-21T06:54:09.050Z,41.62
2023-06-21T06:55:09.053Z,41.51
2023-06-21T06:56:09.068Z,41.35
2023-06-21T06:57:13.642Z,41.29
2023-06-21T06:58:10.115Z,41.05
2023-06-21T06:59:09.104Z,41.15
2023-06-21T07:00:09.119Z,40.77
2023-06-21T07:01:09.056Z,40.88
2023-06-21T07:02:09.063Z,40.58
2023-06-21T07:03:09.062Z,40.58
2023-06-21T07:04:09.156Z,40.65
2023-06-21T07:05:09.102Z,40.66
2023-06-21T07:06:09.015Z,40.51
2023-06-21T07:07:09.031Z,40.38
2023-06-21T07:08:09.184Z,40.05
2023-06-21T07:09:09.077Z,40.26
2023-06-21T07:10:09.023Z,40.23
2023-06-21T07:11:08.977Z,40.18
2023-06-21T07:12:08.988Z,40.31
2023-06-21T07:13:09.179Z,40.32
2023-06-21T07:14:09.009Z,40.41
2023-06-21T07:15:09.016Z,40.43
2023-06-21T07:16:09.003Z,40.49
2023-06-21T07:17:08.948Z,40.31
2023-06-21T07:18:09.176Z,40.30
2023-06-21T07:19:08.937Z,40.15
2023-06-21T07:20:09.049Z,39.65
2023-06-21T07:21:08.956Z,39.57
2023-06-21T07:22:08.920Z,39.89
2023-06-21T07:23:08.948Z,39.93
2023-06-21T07:24:08.951Z,39.87
2023-06-21T07:25:08.906Z,39.85
2023-06-21T07:26:08.924Z,39.83
2023-06-21T07:27:08.991Z,39.65
2023-06-21T07:28:08.956Z,39.75
2023-06-21T07:29:08.953Z,39.78
2023-06-21T07:30:08.978Z,39.79
2023-06-21T07:31:08.940Z,39.75
2023-06-21T07:32:08.931Z,39.65
2023-06-21T07:33:08.990Z,40.07
2023-06-21T07:34:10.955Z,39.74
2023-06-21T07:35:09.084Z,39.00
2023-06-21T07:36:09.156Z,39.13
2023-06-21T07:37:09.220Z,39.71
2023-06-21T07:38:09.280Z,38.93
2023-06-21T07:39:09.409Z,39.85
2023-06-21T07:40:09.417Z,40.29
2023-06-21T07:41:09.446Z,40.23
2023-06-21T07:42:14.305Z,40.46
2023-06-21T07:43:10.691Z,40.59
2023-06-21T07:44:09.472Z,40.57
2023-06-21T07:45:09.502Z,39.62
2023-06-21T07:46:15.706Z,39.61
2023-06-21T07:47:10.528Z,39.67
2023-06-21T07:48:09.504Z,39.16
2023-06-21T07:49:09.439Z,38.28
2023-06-21T07:51:09.411Z,38.75
2023-06-21T07:52:09.410Z,38.33
2023-06-21T07:53:09.683Z,38.19
2023-06-21T07:54:09.400Z,38.04
2023-06-21T07:55:09.387Z,38.11
2023-06-21T07:56:09.440Z,37.68
2023-06-21T07:57:09.414Z,37.99
2023-06-21T07:58:10.197Z,37.88
2023-06-21T07:59:09.372Z,37.77
2023-06-21T08:00:09.368Z,37.45
2023-06-21T08:01:09.494Z,37.51
2023-06-21T08:02:09.408Z,37.65
2023-06-21T08:03:09.719Z,37.84
2023-06-21T08:04:09.439Z,37.90
2023-06-21T08:05:09.377Z,38.21
2023-06-21T08:06:09.373Z,37.87
2023-06-21T08:07:09.314Z,38.05
2023-06-21T08:08:09.720Z,38.24
2023-06-21T08:09:09.347Z,38.08
2023-06-21T08:10:09.335Z,38.09
2023-06-21T08:11:09.332Z,37.91
2023-06-21T08:12:09.434Z,37.75
2023-06-21T08:13:09.728Z,37.62
2023-06-21T08:14:09.323Z,37.62
2023-06-21T08:15:09.293Z,37.42
2023-06-21T08:16:09.306Z,37.36
2023-06-21T08:17:09.262Z,37.53
2023-06-21T08:18:09.735Z,37.74
2023-06-21T08:19:09.266Z,37.57
2023-06-21T08:20:09.249Z,37.62
2023-06-21T08:21:09.231Z,37.45
2023-06-21T08:22:09.239Z,37.51
2023-06-21T08:23:09.224Z,37.62
2023-06-21T08:24:09.242Z,37.79
2023-06-21T08:25:09.222Z,37.84
2023-06-21T08:26:09.233Z,37.83
2023-06-21T08:27:10.192Z,37.93
2023-06-21T08:28:09.258Z,38.12
2023-06-21T08:29:09.212Z,37.97
2023-06-21T08:30:09.209Z,38.06
2023-06-21T08:31:09.210Z,38.09
2023-06-21T08:32:09.296Z,38.05
2023-06-21T08:33:11.803Z,37.90
2023-06-21T08:34:09.155Z,37.80
2023-06-21T08:35:09.210Z,37.80
2023-06-21T08:36:09.182Z,37.70
2023-06-21T08:37:09.176Z,37.55
2023-06-21T08:38:26.644Z,37.55
2023-06-21T08:39:10.158Z,37.54
2023-06-21T08:40:09.138Z,37.52
2023-06-21T08:41:09.129Z,37.02
2023-06-21T08:42:09.102Z,37.06
2023-06-21T08:43:09.140Z,37.03
2023-06-21T08:44:09.086Z,37.07
2023-06-21T08:45:09.088Z,37.07
2023-06-21T08:46:09.433Z,37.05
2023-06-21T08:47:09.082Z,36.91
2023-06-21T08:48:09.180Z,36.75
2023-06-21T08:49:09.046Z,36.61
2023-06-21T08:50:09.072Z,36.75
2023-06-21T08:51:09.079Z,36.64
2023-06-21T08:52:09.083Z,36.24
2023-06-21T08:53:09.073Z,36.31
2023-06-21T08:54:09.163Z,36.08
2023-06-21T08:55:09.134Z,36.39
2023-06-21T08:56:09.129Z,36.51
2023-06-21T08:57:09.130Z,36.31
2023-06-21T08:58:10.773Z,36.43
2023-06-21T08:59:09.253Z,36.60
2023-06-21T09:00:09.338Z,36.59
2023-06-21T09:01:09.436Z,36.29
2023-06-21T09:02:09.479Z,36.24
2023-06-21T09:03:09.586Z,36.15
2023-06-21T09:04:09.623Z,36.13
2023-06-21T09:05:09.532Z,36.17
2023-06-21T09:06:09.561Z,35.78
2023-06-21T09:07:09.687Z,35.93
2023-06-21T09:08:10.676Z,36.04
2023-06-21T09:09:09.757Z,36.10
2023-06-21T09:10:09.820Z,36.23
2023-06-21T09:11:09.845Z,36.19
2023-06-21T09:12:09.929Z,36.22
2023-06-21T09:13:09.967Z,36.19
2023-06-21T09:14:10.065Z,36.20
2023-06-21T09:15:10.081Z,36.12
2023-06-21T09:16:10.187Z,36.00
2023-06-21T09:17:10.218Z,36.12
2023-06-21T09:18:10.415Z,36.19
2023-06-21T09:19:10.230Z,35.62
2023-06-21T09:20:10.248Z,35.55
2023-06-21T09:21:10.331Z,35.62
2023-06-21T09:22:10.337Z,35.64
2023-06-21T09:23:10.718Z,35.64
2023-06-21T09:24:10.489Z,35.74
2023-06-21T09:25:10.709Z,35.93
2023-06-21T09:26:10.473Z,35.72
2023-06-21T09:27:10.544Z,35.73
2023-06-21T09:28:10.510Z,35.56
2023-06-21T09:29:10.549Z,35.69
2023-06-21T09:30:35.268Z,35.61
2023-06-21T09:31:11.593Z,35.62
2023-06-21T09:32:10.610Z,36.15
2023-06-21T09:33:10.808Z,36.03
2023-06-21T09:34:10.586Z,36.21
2023-06-21T09:35:10.572Z,36.04
2023-06-21T09:36:10.576Z,35.96
2023-06-21T09:37:10.555Z,35.77
2023-06-21T09:38:10.523Z,35.71
2023-06-21T09:39:10.542Z,35.59
2023-06-21T09:40:10.520Z,35.61
2023-06-21T09:41:10.720Z,35.59
2023-06-21T09:42:10.509Z,35.57
2023-06-21T09:43:10.517Z,35.67
2023-06-21T09:44:10.549Z,35.78
2023-06-21T09:45:10.452Z,35.81
2023-06-21T09:46:10.511Z,35.81
2023-06-21T09:47:10.482Z,36.06
2023-06-21T09:48:10.566Z,36.38
2023-06-21T09:49:10.646Z,36.15
2023-06-21T09:50:10.501Z,35.99
2023-06-21T09:51:10.447Z,35.92
2023-06-21T09:52:10.452Z,35.54
2023-06-21T09:53:10.435Z,35.51
2023-06-21T09:54:10.484Z,35.51
2023-06-21T09:55:10.563Z,35.27
2023-06-21T09:56:10.633Z,35.19
2023-06-21T09:57:10.668Z,35.29
2023-06-21T09:58:10.750Z,35.30
2023-06-21T09:59:10.797Z,35.18
2023-06-21T10:00:10.810Z,35.35
2023-06-21T10:01:10.926Z,34.93
2023-06-21T10:02:10.915Z,34.78
2023-06-21T10:03:11.045Z,34.88
2023-06-21T10:04:11.308Z,35.14
2023-06-21T10:05:11.068Z,35.04
2023-06-21T10:06:11.133Z,35.08
2023-06-21T10:07:11.154Z,35.01
2023-06-21T10:08:11.222Z,34.69
2023-06-21T10:09:11.243Z,34.18
2023-06-21T10:10:11.247Z,34.32
2023-06-21T10:11:11.285Z,34.61
2023-06-21T10:12:11.293Z,34.71
2023-06-21T10:13:11.339Z,34.19
2023-06-21T10:14:11.735Z,34.44
2023-06-21T10:15:11.441Z,35.01
2023-06-21T10:16:11.397Z,34.65
2023-06-21T10:17:11.432Z,34.59
2023-06-21T10:18:11.431Z,34.37
2023-06-21T10:19:11.408Z,34.37
2023-06-21T10:20:11.528Z,34.07
2023-06-21T10:21:11.441Z,34.11
2023-06-21T10:22:11.482Z,34.11
2023-06-21T10:23:11.453Z,34.19
2023-06-21T10:24:11.488Z,33.88
2023-06-21T10:25:11.450Z,34.38
2023-06-21T10:26:11.492Z,34.77
2023-06-21T10:27:11.489Z,34.62
2023-06-21T10:28:11.522Z,34.30
2023-06-21T10:29:11.500Z,34.38
2023-06-21T10:30:11.492Z,34.34
2023-06-21T10:31:11.486Z,34.44
2023-06-21T10:32:11.614Z,34.16
2023-06-21T10:33:11.566Z,34.18
2023-06-21T10:34:11.583Z,34.59
2023-06-21T10:35:11.591Z,34.58
2023-06-21T10:36:11.707Z,34.35
2023-06-21T10:37:11.630Z,34.42
2023-06-21T10:38:11.701Z,34.74
2023-06-21T10:39:11.693Z,34.78
2023-06-21T10:40:12.284Z,34.66
2023-06-21T10:41:11.827Z,34.69
2023-06-21T10:42:11.879Z,34.29
2023-06-21T10:43:11.966Z,34.39
2023-06-21T10:44:12.013Z,34.64
2023-06-21T10:45:12.050Z,34.49
2023-06-21T10:46:12.187Z,34.46
2023-06-21T10:47:12.127Z,34.52
2023-06-21T10:48:14.797Z,34.78
2023-06-21T10:49:12.186Z,34.56
2023-06-21T10:50:12.182Z,34.50
2023-06-21T10:51:12.149Z,34.53
2023-06-21T10:52:12.119Z,34.60
2023-06-21T10:53:12.190Z,34.26
2023-06-21T10:54:12.133Z,34.41
2023-06-21T10:55:12.133Z,34.60
2023-06-21T10:56:12.112Z,34.40
2023-06-21T10:57:12.120Z,33.95
2023-06-21T10:58:12.108Z,33.78
2023-06-21T10:59:12.161Z,34.03
2023-06-21T11:00:12.112Z,34.02
2023-06-21T11:01:12.137Z,33.78
2023-06-21T11:02:12.084Z,33.69
2023-06-21T11:03:12.127Z,33.70
2023-06-21T11:04:12.195Z,33.83
2023-06-21T11:05:12.220Z,33.44
2023-06-21T11:06:12.093Z,33.26
2023-06-21T11:07:12.130Z,33.27
2023-06-21T11:08:12.057Z,33.36
2023-06-21T11:09:12.211Z,32.91
2023-06-21T11:10:12.048Z,32.75
2023-06-21T11:11:12.049Z,32.48
2023-06-21T11:12:12.050Z,32.34
2023-06-21T11:13:12.024Z,32.53
2023-06-21T11:14:12.044Z,32.35
2023-06-21T11:15:12.017Z,32.39
2023-06-21T11:16:12.029Z,31.75
2023-06-21T11:17:12.018Z,31.63
2023-06-21T11:18:12.215Z,31.83
2023-06-21T11:19:12.302Z,32.00
2023-06-21T11:20:12.010Z,32.04
2023-06-21T11:21:12.053Z,32.26
2023-06-21T11:22:12.053Z,32.26
2023-06-21T11:23:12.094Z,32.41
2023-06-21T11:24:12.285Z,32.11
2023-06-21T11:25:12.151Z,32.08
2023-06-21T11:26:12.157Z,31.93
2023-06-21T11:27:12.200Z,31.75
2023-06-21T11:28:12.213Z,31.74
2023-06-21T11:29:12.310Z,31.67
2023-06-21T11:30:12.262Z,31.76
2023-06-21T11:31:12.302Z,31.90
2023-06-21T11:32:12.350Z,31.68
2023-06-21T11:33:12.331Z,31.86
2023-06-21T11:34:12.400Z,31.94
2023-06-21T11:35:12.465Z,32.24
2023-06-21T11:36:12.781Z,32.24
2023-06-21T11:37:12.509Z,32.44
2023-06-21T11:38:12.528Z,32.48
2023-06-21T11:39:12.821Z,32.38
2023-06-21T11:40:12.553Z,32.59
2023-06-21T11:41:12.599Z,32.66
2023-06-21T11:42:12.604Z,32.93
2023-06-21T11:43:12.644Z,33.14
2023-06-21T11:44:12.719Z,33.31
2023-06-21T11:45:12.756Z,33.44
2023-06-21T11:46:12.846Z,33.26
2023-06-21T11:47:12.888Z,33.26
2023-06-21T11:48:13.006Z,33.30
2023-06-21T11:49:13.097Z,33.24
2023-06-21T11:50:13.028Z,33.29
2023-06-21T11:51:13.074Z,33.29
2023-06-21T11:52:13.083Z,33.15
2023-06-21T11:53:13.090Z,32.93
2023-06-21T11:54:13.099Z,33.03
2023-06-21T11:55:13.120Z,33.00
2023-06-21T11:56:13.103Z,32.78
2023-06-21T11:57:13.127Z,32.56
2023-06-21T11:58:13.126Z,32.48
2023-06-21T11:59:13.141Z,32.47
2023-06-21T12:00:13.301Z,32.61
2023-06-21T12:01:13.134Z,32.60
2023-06-21T12:02:13.150Z,32.65
2023-06-21T12:03:13.277Z,32.64
2023-06-21T12:04:13.270Z,32.47
2023-06-21T12:05:13.307Z,32.31
2023-06-21T12:06:13.128Z,32.37
2023-06-21T12:07:13.215Z,32.34
2023-06-21T12:08:13.216Z,32.25
2023-06-21T12:09:13.209Z,32.22
2023-06-21T12:10:13.299Z,31.96
2023-06-21T12:11:13.356Z,31.88
2023-06-21T12:12:13.364Z,32.00
2023-06-21T12:13:13.458Z,31.95
2023-06-21T12:14:13.491Z,31.97
2023-06-21T12:15:13.539Z,31.90
2023-06-21T12:16:13.703Z,31.91
2023-06-21T12:17:13.678Z,31.93
2023-06-21T12:18:13.732Z,31.90
2023-06-21T12:19:13.825Z,31.25
2023-06-21T12:20:13.822Z,31.35
2023-06-21T12:21:13.883Z,31.08
2023-06-21T12:22:13.917Z,30.76
2023-06-21T12:23:13.917Z,30.78
2023-06-21T12:24:14.325Z,30.77
2023-06-21T12:25:13.961Z,30.43
2023-06-21T12:26:13.956Z,30.65
2023-06-21T12:27:13.974Z,30.96
2023-06-21T12:28:14.045Z,31.12
2023-06-21T12:29:44.691Z,31.59
2023-06-21T12:30:44.761Z,31.67
2023-06-21T12:31:44.732Z,31.63
2023-06-21T12:32:44.704Z,31.78
2023-06-21T12:33:45.173Z,32.05
2023-06-21T12:34:44.685Z,32.06
2023-06-21T12:35:44.708Z,32.16
2023-06-21T12:36:44.676Z,31.91
2023-06-21T12:37:44.675Z,31.54
2023-06-21T12:38:44.947Z,31.34
2023-06-21T12:39:44.648Z,31.39
2023-06-21T12:40:44.654Z,30.87
2023-06-21T12:41:44.647Z,30.98
2023-06-21T12:42:44.657Z,30.93
2023-06-21T12:43:44.899Z,31.10
2023-06-21T12:44:44.617Z,31.63
2023-06-21T12:45:44.625Z,31.67
2023-06-21T12:46:44.620Z,32.31
2023-06-21T12:47:44.649Z,33.00
2023-06-21T12:48:44.929Z,33.23
2023-06-21T12:49:44.670Z,33.53
2023-06-21T12:50:44.765Z,33.67
2023-06-21T12:51:44.622Z,33.78
2023-06-21T12:52:44.579Z,33.89
2023-06-21T12:53:44.532Z,34.03
2023-06-21T12:54:44.581Z,34.02